createdAt,value
2023-04-07T00:00:40.125Z,5.05
2023-04-07T00:03:23.876Z,5.12
2023-04-07T00:05:56.108Z,5.12
2023-04-07T00:08:28.225Z,5.14
2023-04-07T00:11:00.407Z,5.15
2023-04-07T00:13:32.580Z,5.17
2023-04-07T00:16:04.761Z,5.19
2023-04-07T00:18:37.005Z,5.18
2023-04-07T00:21:09.411Z,5.18
2023-04-07T00:23:42.956Z,5.17
2023-04-07T00:26:15.211Z,5.16
2023-04-07T00:28:47.465Z,5.16
2023-04-07T00:31:19.708Z,5.14
2023-04-07T00:33:51.972Z,5.11
2023-04-07T00:36:24.617Z,5.12
2023-04-07T00:38:56.829Z,5.19
2023-04-07T00:41:28.987Z,5.21
2023-04-07T00:44:01.128Z,5.22
2023-04-07T00:46:33.458Z,5.25
2023-04-07T00:49:05.787Z,5.27
2023-04-07T00:51:38.030Z,5.30
2023-04-07T00:54:10.390Z,5.27
2023-04-07T00:56:43.707Z,5.27
2023-04-07T00:59:16.312Z,5.28
2023-04-07T01:01:55.331Z,5.27
2023-04-07T01:04:34.269Z,5.27
2023-04-07T01:07:12.667Z,5.26
2023-04-07T01:09:55.464Z,5.25
2023-04-07T01:12:35.942Z,5.29
2023-04-07T01:15:12.425Z,5.31
2023-04-07T01:17:50.803Z,5.32
2023-04-07T01:20:28.142Z,5.35
2023-04-07T01:23:08.942Z,5.36
2023-04-07T01:26:02.242Z,5.37
2023-04-07T01:29:05.695Z,5.35
2023-04-07T01:31:41.311Z,5.35
2023-04-07T01:34:15.613Z,5.34
2023-04-07T01:36:50.288Z,5.34
2023-04-07T01:39:23.083Z,5.33
2023-04-07T01:41:58.150Z,5.32
2023-04-07T01:44:31.402Z,5.33
2023-04-07T01:47:04.576Z,5.40
2023-04-07T01:49:39.317Z,5.42
2023-04-07T01:52:12.978Z,5.42
2023-04-07T01:54:46.510Z,5.44
2023-04-07T01:57:18.796Z,5.48
2023-04-07T01:59:51.497Z,5.50
2023-04-07T02:02:25.259Z,5.50
2023-04-07T02:05:00.327Z,5.49
2023-04-07T02:07:37.028Z,5.47
2023-04-07T02:10:13.171Z,5.43
2023-04-07T02:12:47.453Z,5.39
2023-04-07T02:15:23.376Z,5.38
2023-04-07T02:17:57.879Z,5.35
2023-04-07T02:20:31.881Z,5.35
2023-04-07T02:23:04.399Z,5.40
2023-04-07T02:25:38.354Z,5.43
2023-04-07T02:28:10.540Z,5.45
2023-04-07T02:30:42.851Z,5.45
2023-04-07T02:33:14.984Z,5.48
2023-04-07T02:35:48.542Z,5.50
2023-04-07T02:38:20.621Z,5.49
2023-04-07T02:40:52.708Z,5.52
2023-04-07T02:43:27.200Z,5.53
2023-04-07T02:45:59.349Z,5.52
2023-04-07T02:48:31.626Z,5.49
2023-04-07T02:51:03.811Z,5.49
2023-04-07T02:53:35.986Z,5.54
2023-04-07T02:56:09.593Z,5.54
2023-04-07T02:58:41.961Z,5.55
2023-04-07T03:01:15.051Z,5.56
2023-04-07T03:03:48.087Z,5.59
2023-04-07T03:06:28.973Z,5.61
2023-04-07T03:09:15.445Z,5.60
2023-04-07T03:11:47.657Z,5.59
2023-04-07T03:14:19.976Z,5.59
2023-04-07T03:16:53.314Z,5.57
2023-04-07T03:19:27.408Z,5.54
2023-04-07T03:21:59.674Z,5.55
2023-04-07T03:24:31.830Z,5.60
2023-04-07T03:27:05.410Z,5.62
2023-04-07T03:29:51.368Z,5.64
2023-04-07T03:32:23.875Z,5.67
2023-04-07T03:34:56.553Z,5.69
2023-04-07T03:37:28.790Z,5.72
2023-04-07T03:40:01.404Z,5.70
2023-04-07T03:42:37.138Z,5.71
2023-04-07T03:45:13.120Z,5.69
2023-04-07T03:47:49.050Z,5.67
2023-04-07T03:50:22.073Z,5.65
2023-04-07T03:52:59.998Z,5.64
2023-04-07T03:55:35.158Z,5.64
2023-04-07T03:58:13.522Z,5.68
2023-04-07T04:00:46.211Z,5.69
2023-04-07T04:03:18.499Z,5.69
2023-04-07T04:06:07.210Z,5.72
2023-04-07T04:08:39.452Z,5.74
2023-04-07T04:11:12.086Z,5.75
2023-04-07T04:13:50.140Z,5.74
2023-04-07T04:16:22.920Z,5.75
2023-04-07T04:18:56.222Z,5.77
2023-04-07T04:21:29.701Z,5.76
2023-04-07T04:24:02.135Z,5.73
2023-04-07T04:26:34.574Z,5.72
2023-04-07T04:29:10.972Z,5.77
2023-04-07T04:31:43.706Z,5.80
2023-04-07T04:34:16.498Z,5.81
2023-04-07T04:36:49.769Z,5.83
2023-04-07T04:39:22.756Z,5.84
2023-04-07T04:41:55.061Z,5.87
2023-04-07T04:44:29.377Z,5.87
2023-04-07T04:47:02.320Z,5.86
2023-04-07T04:49:36.211Z,5.84
2023-04-07T04:52:09.098Z,5.83
2023-04-07T04:54:45.941Z,5.84
2023-04-07T04:57:18.257Z,5.85
2023-04-07T04:59:50.848Z,5.92
2023-04-07T05:02:23.322Z,5.94
2023-04-07T05:04:55.823Z,5.96
2023-04-07T05:07:31.488Z,5.98
2023-04-07T05:10:03.830Z,6.00
2023-04-07T05:12:38.212Z,6.03
2023-04-07T05:15:15.287Z,6.02
2023-04-07T05:17:50.673Z,6.01
2023-04-07T05:20:27.280Z,6.02
2023-04-07T05:23:00.206Z,6.03
2023-04-07T05:25:36.934Z,6.02
2023-04-07T05:28:10.305Z,6.01
2023-04-07T05:30:43.149Z,6.09
2023-04-07T05:33:15.555Z,6.10
2023-04-07T05:35:48.883Z,6.12
2023-04-07T05:38:21.091Z,6.12
2023-04-07T05:40:54.001Z,6.15
2023-04-07T05:43:30.109Z,6.19
2023-04-07T05:46:02.251Z,6.19
2023-04-07T05:48:35.691Z,6.19
2023-04-07T05:51:08.707Z,6.19
2023-04-07T05:53:40.796Z,6.19
2023-04-07T05:56:13.123Z,6.19
2023-04-07T05:58:48.883Z,6.20
2023-04-07T06:01:21.541Z,6.26
2023-04-07T06:03:53.785Z,6.30
2023-04-07T06:06:28.756Z,6.32
2023-04-07T06:09:00.952Z,6.34
2023-04-07T06:11:33.068Z,6.36
2023-04-07T06:14:05.205Z,6.38
2023-04-07T06:16:37.325Z,6.39
2023-04-07T06:19:09.813Z,6.40
2023-04-07T06:21:42.011Z,6.41
2023-04-07T06:24:14.191Z,6.43
2023-04-07T06:26:47.951Z,6.44
2023-04-07T06:29:20.160Z,6.49
2023-04-07T06:31:52.410Z,6.57
2023-04-07T06:34:24.762Z,6.60
2023-04-07T06:36:58.162Z,6.64
2023-04-07T06:39:31.841Z,6.70
2023-04-07T06:42:03.877Z,6.78
2023-04-07T06:44:37.503Z,6.84
2023-04-07T06:47:09.604Z,6.91
2023-04-07T06:49:41.797Z,6.94
2023-04-07T06:52:13.945Z,6.93
2023-04-07T06:54:46.126Z,6.93
2023-04-07T06:57:18.283Z,6.93
2023-04-07T06:59:50.584Z,6.96
2023-04-07T07:02:22.935Z,7.04
2023-04-07T07:04:55.148Z,7.08
2023-04-07T07:07:27.320Z,7.12
2023-04-07T07:09:59.482Z,7.17
2023-04-07T07:12:32.504Z,7.23
2023-04-07T07:15:04.986Z,7.28
2023-04-07T07:17:37.189Z,7.33
2023-04-07T07:20:12.011Z,7.34
2023-04-07T07:22:44.090Z,7.36
2023-04-07T07:25:16.701Z,7.38
2023-04-07T07:27:52.273Z,7.40
2023-04-07T07:30:26.298Z,7.45
2023-04-07T07:32:58.732Z,7.50
2023-04-07T07:35:32.805Z,7.60
2023-04-07T07:38:05.046Z,7.65
2023-04-07T07:40:37.210Z,7.70
2023-04-07T07:43:09.344Z,7.82
2023-04-07T07:45:41.474Z,7.92
2023-04-07T07:48:13.654Z,8.02
2023-04-07T07:50:45.955Z,8.09
2023-04-07T07:53:18.108Z,8.12
2023-04-07T07:55:50.370Z,8.14
2023-04-07T07:58:22.471Z,8.14
2023-04-07T08:00:54.875Z,8.15
2023-04-07T08:03:27.035Z,8.20
2023-04-07T08:05:59.384Z,8.27
2023-04-07T08:08:31.539Z,8.30
2023-04-07T08:11:03.886Z,8.33
2023-04-07T08:13:36.051Z,8.40
2023-04-07T08:16:08.930Z,8.46
2023-04-07T08:18:41.118Z,8.55
2023-04-07T08:21:13.197Z,8.60
2023-04-07T08:23:46.593Z,8.59
2023-04-07T08:26:18.758Z,8.57
2023-04-07T08:28:52.401Z,8.55
2023-04-07T08:31:24.600Z,8.53
2023-04-07T08:33:58.483Z,8.51
2023-04-07T08:36:31.630Z,8.53
2023-04-07T08:39:05.773Z,8.50
2023-04-07T08:41:41.002Z,8.48
2023-04-07T08:44:14.288Z,8.48
2023-04-07T08:46:48.178Z,8.50
2023-04-07T08:49:21.352Z,8.50
2023-04-07T08:51:56.088Z,8.50
2023-04-07T08:54:27.349Z,8.53
2023-04-07T08:56:59.662Z,8.51
2023-04-07T08:59:33.888Z,8.47
2023-04-07T09:02:08.229Z,8.47
2023-04-07T09:04:40.575Z,8.53
2023-04-07T09:07:12.731Z,8.57
2023-04-07T09:09:44.841Z,8.62
2023-04-07T09:12:17.009Z,8.67
2023-04-07T09:14:49.080Z,8.71
2023-04-07T09:17:21.450Z,8.78
2023-04-07T09:19:54.038Z,8.82
2023-04-07T09:22:40.229Z,8.88
2023-04-07T09:25:18.648Z,8.92
2023-04-07T09:28:05.825Z,8.95
2023-04-07T09:30:37.974Z,8.95
2023-04-07T09:33:14.334Z,8.97
2023-04-07T09:35:56.199Z,8.98
2023-04-07T09:38:36.341Z,9.03
2023-04-07T09:41:13.154Z,9.00
2023-04-07T09:43:47.257Z,8.99
2023-04-07T09:46:20.245Z,9.02
2023-04-07T09:49:06.014Z,9.11
2023-04-07T09:51:38.335Z,9.26
2023-04-07T09:54:10.751Z,9.43
2023-04-07T09:56:42.920Z,9.54
2023-04-07T09:59:17.655Z,9.66
2023-04-07T10:01:50.087Z,9.77
2023-04-07T10:04:23.447Z,9.82
2023-04-07T10:06:56.499Z,9.83
2023-04-07T10:09:30.269Z,9.85
2023-04-07T10:12:03.005Z,9.90
2023-04-07T10:14:37.547Z,9.89
2023-04-07T10:17:12.390Z,9.87
2023-04-07T10:19:44.653Z,9.88
2023-04-07T10:22:18.937Z,9.91
2023-04-07T10:24:56.826Z,9.90
2023-04-07T10:27:38.341Z,9.92
2023-04-07T10:30:19.843Z,9.93
2023-04-07T10:32:54.363Z,9.94
2023-04-07T10:35:27.144Z,9.99
2023-04-07T10:38:16.826Z,9.99
2023-04-07T10:40:49.033Z,10.01
2023-04-07T10:43:41.634Z,10.07
2023-04-07T10:46:13.790Z,10.17
2023-04-07T10:49:05.964Z,10.26
2023-04-07T10:51:40.867Z,10.35
2023-04-07T10:54:18.991Z,10.47
2023-04-07T10:57:10.728Z,10.60
2023-04-07T11:00:04.710Z,10.74
2023-04-07T11:02:39.627Z,10.87
2023-04-07T11:05:23.878Z,10.99
2023-04-07T11:07:58.467Z,11.22
2023-04-07T11:10:30.894Z,11.40
2023-04-07T11:13:05.635Z,11.52
2023-04-07T11:15:40.730Z,11.62
2023-04-07T11:18:16.342Z,11.71
2023-04-07T11:20:53.857Z,11.77
2023-04-07T11:23:27.506Z,11.86
2023-04-07T11:26:04.384Z,11.95
2023-04-07T11:28:37.999Z,12.00
2023-04-07T11:31:10.505Z,12.05
2023-04-07T11:33:43.709Z,12.11
2023-04-07T11:36:15.957Z,12.18
2023-04-07T11:38:48.109Z,12.22
2023-04-07T11:41:20.208Z,12.29
2023-04-07T11:44:04.594Z,12.33
2023-04-07T11:46:37.415Z,12.36
2023-04-07T11:49:14.697Z,12.40
2023-04-07T11:51:47.629Z,12.44
2023-04-07T11:54:20.066Z,12.46
2023-04-07T11:56:55.630Z,12.47
2023-04-07T11:59:29.222Z,12.47
2023-04-07T12:02:02.152Z,12.50
2023-04-07T12:04:36.665Z,12.55
2023-04-07T12:07:12.849Z,12.55
2023-04-07T12:09:44.950Z,12.52
2023-04-07T12:12:26.374Z,12.48
2023-04-07T12:14:58.891Z,12.41
2023-04-07T12:17:31.285Z,12.36
2023-04-07T12:20:03.711Z,12.31
2023-04-07T12:22:35.908Z,12.27
2023-04-07T12:25:09.281Z,12.26
2023-04-07T12:27:43.593Z,12.36
2023-04-07T12:30:14.949Z,12.45
2023-04-07T12:32:47.714Z,12.58
2023-04-07T12:35:19.943Z,12.70
2023-04-07T12:37:53.076Z,12.77
2023-04-07T12:40:26.433Z,12.78
2023-04-07T12:42:59.427Z,12.78
2023-04-07T12:45:32.126Z,12.78
2023-04-07T12:48:04.408Z,12.80
2023-04-07T12:50:38.160Z,12.84
2023-04-07T12:53:10.262Z,12.89
2023-04-07T12:55:42.689Z,12.96
2023-04-07T12:58:14.925Z,12.98
2023-04-07T13:00:48.701Z,13.00
2023-04-07T13:03:21.174Z,13.03
2023-04-07T13:05:55.177Z,13.02
2023-04-07T13:08:27.377Z,13.01
2023-04-07T13:10:59.728Z,13.01
2023-04-07T13:13:31.953Z,12.99
2023-04-07T13:16:04.379Z,12.94
2023-04-07T13:18:36.798Z,12.87
2023-04-07T13:23:44.270Z,12.80
2023-04-07T13:26:16.308Z,12.75
2023-04-07T13:28:48.724Z,12.69
2023-04-07T13:31:22.197Z,12.64
2023-04-07T13:33:54.449Z,12.56
2023-04-07T13:36:28.530Z,12.49
2023-04-07T13:39:00.850Z,12.43
2023-04-07T13:41:33.105Z,12.37
2023-04-07T13:44:05.224Z,12.32
2023-04-07T13:46:38.235Z,12.28
2023-04-07T13:49:10.758Z,12.27
2023-04-07T13:51:42.860Z,12.24
2023-04-07T13:54:15.010Z,12.20
2023-04-07T13:56:49.132Z,12.19
2023-04-07T13:59:21.600Z,12.19
2023-04-07T14:01:53.802Z,12.17
2023-04-07T14:04:26.071Z,12.15
2023-04-07T14:06:58.387Z,12.15
2023-04-07T14:09:30.595Z,12.15
2023-04-07T14:12:02.690Z,12.14
2023-04-07T14:14:37.275Z,12.15
2023-04-07T14:17:09.368Z,12.19
2023-04-07T14:19:42.317Z,12.18
2023-04-07T14:22:14.983Z,12.16
2023-04-07T14:24:47.150Z,12.13
2023-04-07T14:27:21.223Z,12.11
2023-04-07T14:29:55.299Z,12.10
2023-04-07T14:32:29.618Z,12.09
2023-04-07T14:35:01.366Z,12.04
2023-04-07T14:37:33.456Z,11.99
2023-04-07T14:40:06.336Z,11.95
2023-04-07T14:42:39.269Z,11.92
2023-04-07T14:45:13.964Z,11.90
2023-04-07T14:47:46.257Z,11.95
2023-04-07T14:50:18.787Z,11.96
2023-04-07T14:52:50.927Z,11.98
2023-04-07T14:55:23.329Z,12.01
2023-04-07T14:57:55.559Z,12.04
2023-04-07T15:00:28.944Z,12.09
2023-04-07T15:03:01.205Z,12.14
2023-04-07T15:05:33.755Z,12.19
2023-04-07T15:08:06.380Z,12.23
2023-04-07T15:10:40.623Z,12.23
2023-04-07T15:13:13.012Z,12.22
2023-04-07T15:15:45.163Z,12.18
2023-04-07T15:18:17.424Z,12.13
2023-04-07T15:20:49.724Z,12.13
2023-04-07T15:23:21.799Z,12.11
2023-04-07T15:25:56.346Z,12.09
2023-04-07T15:28:28.493Z,12.07
2023-04-07T15:31:00.729Z,12.06
2023-04-07T15:33:32.820Z,12.06
2023-04-07T15:36:05.267Z,12.04
2023-04-07T15:38:38.936Z,12.04
2023-04-07T15:41:10.986Z,11.97
2023-04-07T15:43:43.167Z,11.93
2023-04-07T15:46:15.505Z,11.91
2023-04-07T15:48:48.119Z,11.89
2023-04-07T15:51:20.407Z,11.90
2023-04-07T15:53:52.634Z,11.89
2023-04-07T15:56:25.097Z,11.88
2023-04-07T15:58:57.130Z,11.88
2023-04-07T16:01:29.998Z,11.85
2023-04-07T16:04:02.610Z,11.84
2023-04-07T16:06:34.884Z,11.82
2023-04-07T16:09:07.322Z,11.77
2023-04-07T16:11:39.583Z,11.73
2023-04-07T16:14:11.741Z,11.69
2023-04-07T16:16:44.781Z,11.65
2023-04-07T16:19:17.425Z,11.62
2023-04-07T16:21:49.571Z,11.64
2023-04-07T16:24:21.756Z,11.62
2023-04-07T16:26:55.979Z,11.61
2023-04-07T16:29:28.334Z,11.60
2023-04-07T16:32:00.666Z,11.59
2023-04-07T16:34:33.002Z,11.59
2023-04-07T16:37:05.236Z,11.57
2023-04-07T16:39:37.355Z,11.54
2023-04-07T16:42:09.498Z,11.52
2023-04-07T16:44:41.554Z,11.48
2023-04-07T16:47:13.665Z,11.47
2023-04-07T16:49:46.028Z,11.52
2023-04-07T16:52:20.408Z,11.54
2023-04-07T16:54:52.728Z,11.54
2023-04-07T16:57:25.506Z,11.54
2023-04-07T16:59:57.646Z,11.55
2023-04-07T17:02:29.841Z,11.54
2023-04-07T17:05:02.013Z,11.55
2023-04-07T17:07:34.172Z,11.55
2023-04-07T17:10:06.938Z,11.51
2023-04-07T17:12:38.939Z,11.48
2023-04-07T17:15:13.696Z,11.45
2023-04-07T17:17:44.314Z,11.42
2023-04-07T17:20:18.694Z,11.42
2023-04-07T17:22:51.356Z,11.40
2023-04-07T17:25:23.478Z,11.38
2023-04-07T17:27:56.166Z,11.38
2023-04-07T17:30:28.505Z,11.37
2023-04-07T17:33:00.698Z,11.37
2023-04-07T17:35:32.969Z,11.37
2023-04-07T17:38:05.652Z,11.37
2023-04-07T17:40:37.731Z,11.33
2023-04-07T17:43:09.905Z,11.31
2023-04-07T17:45:41.997Z,11.28
2023-04-07T17:48:14.295Z,11.26
2023-04-07T17:50:46.926Z,11.25
2023-04-07T17:53:20.044Z,11.28
2023-04-07T17:55:52.197Z,11.25
2023-04-07T17:58:24.342Z,11.24
2023-04-07T18:00:56.581Z,11.23
2023-04-07T18:03:28.920Z,11.22
2023-04-07T18:06:01.326Z,11.20
2023-04-07T18:08:33.712Z,11.18
2023-04-07T18:11:07.182Z,11.13
2023-04-07T18:13:39.366Z,11.08
2023-04-07T18:16:13.388Z,11.06
2023-04-07T18:18:46.496Z,11.01
2023-04-07T18:21:18.670Z,11.00
2023-04-07T18:23:51.041Z,11.04
2023-04-07T18:26:23.768Z,11.02
2023-04-07T18:28:55.912Z,11.01
2023-04-07T18:31:28.051Z,11.02
2023-04-07T18:34:00.167Z,11.03
2023-04-07T18:36:32.329Z,11.04
2023-04-07T18:39:04.819Z,11.05
2023-04-07T18:41:36.944Z,11.03
2023-04-07T18:44:09.078Z,11.02
2023-04-07T18:46:41.580Z,11.01
2023-04-07T18:49:13.835Z,11.00
2023-04-07T18:51:46.987Z,11.02
2023-04-07T18:54:19.104Z,11.03
2023-04-07T18:56:51.659Z,11.03
2023-04-07T18:59:23.760Z,11.02
2023-04-07T19:01:56.801Z,11.01
2023-04-07T19:04:29.184Z,10.97
2023-04-07T19:07:01.244Z,10.94
2023-04-07T19:09:33.688Z,10.92
2023-04-07T19:12:07.430Z,10.89
2023-04-07T19:14:39.477Z,10.89
2023-04-07T19:17:12.782Z,10.91
2023-04-07T19:19:44.951Z,10.91
2023-04-07T19:22:17.742Z,10.91
2023-04-07T19:24:49.870Z,10.91
2023-04-07T19:27:22.860Z,10.91
2023-04-07T19:29:55.009Z,10.92
2023-04-07T19:32:27.408Z,10.90
2023-04-07T19:34:59.506Z,10.87
2023-04-07T19:37:31.605Z,10.86
2023-04-07T19:40:05.270Z,10.83
2023-04-07T19:42:39.314Z,10.81
2023-04-07T19:45:12.916Z,10.86
2023-04-07T19:47:45.321Z,10.86
2023-04-07T19:50:17.792Z,10.85
2023-04-07T19:52:50.826Z,10.85
2023-04-07T19:55:23.502Z,10.86
2023-04-07T19:57:55.607Z,10.86
2023-04-07T20:00:31.056Z,10.85
2023-04-07T20:03:04.723Z,10.83
2023-04-07T20:05:38.380Z,10.79
2023-04-07T20:08:10.756Z,10.75
2023-04-07T20:10:42.895Z,10.73
2023-04-07T20:13:15.080Z,10.75
2023-04-07T20:15:49.150Z,10.73
2023-04-07T20:18:21.550Z,10.71
2023-04-07T20:21:01.315Z,10.69
2023-04-07T20:23:33.757Z,10.68
2023-04-07T20:26:07.097Z,10.64
2023-04-07T20:28:39.295Z,10.60
2023-04-07T20:31:11.545Z,10.57
2023-04-07T20:33:43.896Z,10.53
2023-04-07T20:36:16.271Z,10.50
2023-04-07T20:38:49.841Z,10.54
2023-04-07T20:41:23.807Z,10.52
2023-04-07T20:43:56.014Z,10.50
2023-04-07T20:46:30.037Z,10.47
2023-04-07T20:49:02.284Z,10.44
2023-04-07T20:51:35.086Z,10.38
2023-04-07T20:54:07.941Z,10.32
2023-04-07T20:56:40.104Z,10.27
2023-04-07T20:59:12.216Z,10.24
2023-04-07T21:01:44.778Z,10.20
2023-04-07T21:04:17.176Z,10.19
2023-04-07T21:06:49.355Z,10.22
2023-04-07T21:09:21.554Z,10.20
2023-04-07T21:11:53.877Z,10.19
2023-04-07T21:14:25.974Z,10.18
2023-04-07T21:16:58.120Z,10.18
2023-04-07T21:19:30.738Z,10.14
2023-04-07T21:22:02.875Z,10.12
2023-04-07T21:24:35.513Z,10.09
2023-04-07T21:27:07.923Z,10.05
2023-04-07T21:29:42.486Z,10.02
2023-04-07T21:32:17.700Z,10.01
2023-04-07T21:34:52.680Z,10.02
2023-04-07T21:37:25.028Z,10.00
2023-04-07T21:39:58.033Z,9.98
2023-04-07T21:42:30.314Z,9.95
2023-04-07T21:45:02.454Z,9.93
2023-04-07T21:47:34.572Z,9.89
2023-04-07T21:50:08.719Z,9.84
2023-04-07T21:52:42.780Z,9.79
2023-04-07T21:55:15.201Z,9.73
2023-04-07T21:57:47.988Z,9.66
2023-04-07T22:00:20.569Z,9.64
2023-04-07T22:02:53.376Z,9.67
2023-04-07T22:05:26.032Z,9.65
2023-04-07T22:07:58.662Z,9.62
2023-04-07T22:10:31.080Z,9.58
2023-04-07T22:13:03.819Z,9.53
2023-04-07T22:15:36.406Z,9.48
2023-04-07T22:18:08.741Z,9.45
2023-04-07T22:20:41.493Z,9.43
2023-04-07T22:23:13.986Z,9.39
2023-04-07T22:25:46.110Z,9.39
2023-04-07T22:28:18.394Z,9.43
2023-04-07T22:30:50.516Z,9.42
2023-04-07T22:33:22.651Z,9.41
2023-04-07T22:35:54.765Z,9.41
2023-04-07T22:38:27.169Z,9.40
2023-04-07T22:40:59.398Z,9.36
2023-04-07T22:43:31.644Z,9.31
2023-04-07T22:46:03.706Z,9.28
2023-04-07T22:48:36.025Z,9.23
2023-04-07T22:51:08.281Z,9.20
2023-04-07T22:53:40.916Z,9.16
2023-04-07T22:56:13.550Z,9.14
2023-04-07T22:58:45.680Z,9.17
2023-04-07T23:01:18.166Z,9.15
2023-04-07T23:03:50.609Z,9.13
2023-04-07T23:06:22.968Z,9.12
2023-04-07T23:08:55.095Z,9.13
2023-04-07T23:11:27.435Z,9.07
2023-04-07T23:13:59.784Z,9.02
2023-04-07T23:16:31.948Z,8.97
2023-04-07T23:19:04.150Z,8.92
2023-04-07T23:21:36.154Z,8.88
2023-04-07T23:24:08.381Z,8.82
2023-04-07T23:26:40.539Z,8.79
2023-04-07T23:29:12.913Z,8.83
2023-04-07T23:31:44.992Z,8.82
2023-04-07T23:34:17.122Z,8.82
2023-04-07T23:36:49.298Z,8.83
2023-04-07T23:39:21.430Z,8.83
2023-04-07T23:41:53.539Z,8.80
2023-04-07T23:44:25.840Z,8.75
2023-04-07T23:46:57.893Z,8.71
2023-04-07T23:49:29.940Z,8.69
2023-04-07T23:52:02.632Z,8.65
2023-04-07T23:54:34.801Z,8.60
2023-04-07T23:57:06.949Z,8.54
2023-04-07T23:59:39.127Z,8.46
